sensor_id;sensor_type;location;lat;lon;timestamp;P1;durP1;ratioP1;P2;durP2;ratioP2
34673;SDS011;20879;55.668;37.858;2022-07-11T00:01:05;6.13;;;5.47;;
34673;SDS011;20879;55.668;37.858;2022-07-11T00:03:34;5.45;;;4.95;;
34673;SDS011;20879;55.668;37.858;2022-07-11T00:06:04;7.35;;;4.95;;
34673;SDS011;20879;55.668;37.858;2022-07-11T00:08:33;9.02;;;5.35;;
34673;SDS011;20879;55.668;37.858;2022-07-11T00:11:03;7.07;;;5.20;;
34673;SDS011;20879;55.668;37.858;2022-07-11T00:13:32;8.65;;;5.03;;
34673;SDS011;20879;55.668;37.858;2022-07-11T00:16:04;7.32;;;4.70;;
34673;SDS011;20879;55.668;37.858;2022-07-11T00:18:38;6.93;;;4.47;;
34673;SDS011;20879;55.668;37.858;2022-07-11T00:21:07;7.10;;;5.10;;
34673;SDS011;20879;55.668;37.858;2022-07-11T00:23:37;6.05;;;5.10;;
34673;SDS011;20879;55.668;37.858;2022-07-11T00:26:07;6.35;;;4.97;;
34673;SDS011;20879;55.668;37.858;2022-07-11T00:28:36;7.00;;;4.88;;
34673;SDS011;20879;55.668;37.858;2022-07-11T00:31:07;8.55;;;4.97;;
34673;SDS011;20879;55.668;37.858;2022-07-11T00:33:37;7.95;;;4.95;;
34673;SDS011;20879;55.668;37.858;2022-07-11T00:36:07;7.75;;;4.90;;
34673;SDS011;20879;55.668;37.858;2022-07-11T00:38:36;7.15;;;5.22;;
34673;SDS011;20879;55.668;37.858;2022-07-11T00:41:06;6.13;;;5.10;;
34673;SDS011;20879;55.668;37.858;2022-07-11T00:43:37;6.28;;;5.40;;
34673;SDS011;20879;55.668;37.858;2022-07-11T00:46:11;8.55;;;5.45;;
34673;SDS011;20879;55.668;37.858;2022-07-11T00:48:41;6.32;;;5.00;;
34673;SDS011;20879;55.668;37.858;2022-07-11T00:51:10;6.60;;;5.55;;
34673;SDS011;20879;55.668;37.858;2022-07-11T00:53:40;7.13;;;5.20;;
34673;SDS011;20879;55.668;37.858;2022-07-11T00:56:11;8.63;;;5.85;;
34673;SDS011;20879;55.668;37.858;2022-07-11T00:58:40;7.95;;;5.43;;
34673;SDS011;20879;55.668;37.858;2022-07-11T01:01:12;9.13;;;5.30;;
34673;SDS011;20879;55.668;37.858;2022-07-11T01:03:41;9.85;;;5.93;;
34673;SDS011;20879;55.668;37.858;2022-07-11T01:06:12;6.93;;;5.63;;
34673;SDS011;20879;55.668;37.858;2022-07-11T01:08:41;9.00;;;5.50;;
34673;SDS011;20879;55.668;37.858;2022-07-11T01:11:12;7.10;;;5.00;;
34673;SDS011;20879;55.668;37.858;2022-07-11T01:13:43;7.75;;;5.55;;
34673;SDS011;20879;55.668;37.858;2022-07-11T01:16:16;8.70;;;5.60;;
34673;SDS011;20879;55.668;37.858;2022-07-11T01:18:49;6.32;;;5.22;;
34673;SDS011;20879;55.668;37.858;2022-07-11T01:21:24;8.07;;;5.20;;
34673;SDS011;20879;55.668;37.858;2022-07-11T01:23:59;7.35;;;5.22;;
34673;SDS011;20879;55.668;37.858;2022-07-11T01:26:30;7.90;;;5.68;;
34673;SDS011;20879;55.668;37.858;2022-07-11T01:29:07;7.93;;;5.82;;
34673;SDS011;20879;55.668;37.858;2022-07-11T01:31:38;6.35;;;5.75;;
34673;SDS011;20879;55.668;37.858;2022-07-11T01:34:08;7.53;;;5.35;;
34673;SDS011;20879;55.668;37.858;2022-07-11T01:36:37;7.40;;;5.32;;
34673;SDS011;20879;55.668;37.858;2022-07-11T01:39:11;8.10;;;5.43;;
34673;SDS011;20879;55.668;37.858;2022-07-11T01:41:40;6.28;;;5.68;;
34673;SDS011;20879;55.668;37.858;2022-07-11T01:44:10;11.75;;;6.00;;
34673;SDS011;20879;55.668;37.858;2022-07-11T01:46:39;11.07;;;7.50;;
34673;SDS011;20879;55.668;37.858;2022-07-11T01:49:09;7.82;;;6.75;;
34673;SDS011;20879;55.668;37.858;2022-07-11T01:51:38;12.80;;;7.05;;
34673;SDS011;20879;55.668;37.858;2022-07-11T01:54:08;8.32;;;5.93;;
34673;SDS011;20879;55.668;37.858;2022-07-11T01:56:39;9.18;;;6.25;;
34673;SDS011;20879;55.668;37.858;2022-07-11T01:59:08;8.45;;;6.00;;
34673;SDS011;20879;55.668;37.858;2022-07-11T02:01:37;8.75;;;5.55;;
34673;SDS011;20879;55.668;37.858;2022-07-11T02:04:07;10.02;;;5.53;;
34673;SDS011;20879;55.668;37.858;2022-07-11T02:06:37;5.25;;;4.05;;
34673;SDS011;20879;55.668;37.858;2022-07-11T02:09:06;5.30;;;4.70;;
34673;SDS011;20879;55.668;37.858;2022-07-11T02:11:37;5.03;;;4.53;;
34673;SDS011;20879;55.668;37.858;2022-07-11T02:14:07;8.50;;;4.53;;
34673;SDS011;20879;55.668;37.858;2022-07-11T02:16:36;6.80;;;4.70;;
34673;SDS011;20879;55.668;37.858;2022-07-11T02:19:06;7.82;;;4.72;;
34673;SDS011;20879;55.668;37.858;2022-07-11T02:21:37;6.57;;;4.97;;
34673;SDS011;20879;55.668;37.858;2022-07-11T02:24:06;6.88;;;4.22;;
34673;SDS011;20879;55.668;37.858;2022-07-11T02:26:37;8.90;;;4.53;;
34673;SDS011;20879;55.668;37.858;2022-07-11T02:29:06;6.90;;;4.70;;
34673;SDS011;20879;55.668;37.858;2022-07-11T02:31:36;5.50;;;4.65;;
34673;SDS011;20879;55.668;37.858;2022-07-11T02:34:05;6.85;;;4.65;;
34673;SDS011;20879;55.668;37.858;2022-07-11T02:36:34;8.40;;;4.90;;
34673;SDS011;20879;55.668;37.858;2022-07-11T02:39:04;7.28;;;4.97;;
34673;SDS011;20879;55.668;37.858;2022-07-11T02:41:33;8.00;;;5.18;;
34673;SDS011;20879;55.668;37.858;2022-07-11T02:44:05;6.20;;;4.93;;
34673;SDS011;20879;55.668;37.858;2022-07-11T02:46:34;5.82;;;5.05;;
34673;SDS011;20879;55.668;37.858;2022-07-11T02:49:03;6.85;;;5.20;;
34673;SDS011;20879;55.668;37.858;2022-07-11T02:51:33;10.30;;;5.30;;
34673;SDS011;20879;55.668;37.858;2022-07-11T02:54:02;8.82;;;5.80;;
34673;SDS011;20879;55.668;37.858;2022-07-11T02:56:32;7.35;;;5.20;;
34673;SDS011;20879;55.668;37.858;2022-07-11T02:59:01;6.00;;;5.18;;
34673;SDS011;20879;55.668;37.858;2022-07-11T03:01:33;8.07;;;5.28;;
34673;SDS011;20879;55.668;37.858;2022-07-11T03:04:02;7.15;;;5.22;;
34673;SDS011;20879;55.668;37.858;2022-07-11T03:06:32;8.45;;;4.95;;
34673;SDS011;20879;55.668;37.858;2022-07-11T03:09:02;6.30;;;5.50;;
34673;SDS011;20879;55.668;37.858;2022-07-11T03:11:32;7.05;;;5.40;;
34673;SDS011;20879;55.668;37.858;2022-07-11T03:14:01;7.13;;;5.05;;
34673;SDS011;20879;55.668;37.858;2022-07-11T03:16:31;9.40;;;6.32;;
34673;SDS011;20879;55.668;37.858;2022-07-11T03:21:31;9.50;;;7.82;;
34673;SDS011;20879;55.668;37.858;2022-07-11T03:24:00;10.07;;;8.50;;
34673;SDS011;20879;55.668;37.858;2022-07-11T03:26:29;13.23;;;7.97;;
34673;SDS011;20879;55.668;37.858;2022-07-11T03:28:59;9.93;;;7.50;;
34673;SDS011;20879;55.668;37.858;2022-07-11T03:31:29;10.80;;;6.95;;
34673;SDS011;20879;55.668;37.858;2022-07-11T03:34:00;9.25;;;6.75;;
34673;SDS011;20879;55.668;37.858;2022-07-11T03:36:30;11.07;;;6.85;;
34673;SDS011;20879;55.668;37.858;2022-07-11T03:38:59;8.30;;;6.53;;
34673;SDS011;20879;55.668;37.858;2022-07-11T03:41:28;11.07;;;7.18;;
34673;SDS011;20879;55.668;37.858;2022-07-11T03:43:57;9.77;;;6.38;;
34673;SDS011;20879;55.668;37.858;2022-07-11T03:46:27;10.32;;;6.80;;
34673;SDS011;20879;55.668;37.858;2022-07-11T03:48:56;8.98;;;6.50;;
34673;SDS011;20879;55.668;37.858;2022-07-11T03:51:27;8.30;;;6.20;;
34673;SDS011;20879;55.668;37.858;2022-07-11T03:53:57;9.32;;;5.75;;
34673;SDS011;20879;55.668;37.858;2022-07-11T03:56:27;7.22;;;5.60;;
34673;SDS011;20879;55.668;37.858;2022-07-11T03:58:56;8.02;;;5.78;;
34673;SDS011;20879;55.668;37.858;2022-07-11T04:01:25;8.45;;;5.47;;
34673;SDS011;20879;55.668;37.858;2022-07-11T04:03:55;8.05;;;5.82;;
34673;SDS011;20879;55.668;37.858;2022-07-11T04:06:24;9.32;;;5.43;;
34673;SDS011;20879;55.668;37.858;2022-07-11T04:08:55;6.75;;;5.15;;
34673;SDS011;20879;55.668;37.858;2022-07-11T04:11:24;8.35;;;5.53;;
34673;SDS011;20879;55.668;37.858;2022-07-11T04:13:54;7.30;;;5.22;;
34673;SDS011;20879;55.668;37.858;2022-07-11T04:16:24;10.95;;;6.15;;
34673;SDS011;20879;55.668;37.858;2022-07-11T04:18:54;13.20;;;5.22;;
34673;SDS011;20879;55.668;37.858;2022-07-11T04:21:23;8.35;;;5.30;;
34673;SDS011;20879;55.668;37.858;2022-07-11T04:23:52;6.82;;;5.43;;
34673;SDS011;20879;55.668;37.858;2022-07-11T04:26:23;6.93;;;5.20;;
34673;SDS011;20879;55.668;37.858;2022-07-11T04:28:53;8.13;;;5.72;;
34673;SDS011;20879;55.668;37.858;2022-07-11T04:31:22;7.53;;;5.07;;
34673;SDS011;20879;55.668;37.858;2022-07-11T04:33:53;8.35;;;4.85;;
34673;SDS011;20879;55.668;37.858;2022-07-11T04:36:22;6.28;;;4.65;;
34673;SDS011;20879;55.668;37.858;2022-07-11T04:38:52;8.25;;;4.65;;
34673;SDS011;20879;55.668;37.858;2022-07-11T04:41:23;8.52;;;4.80;;
34673;SDS011;20879;55.668;37.858;2022-07-11T04:46:21;8.93;;;4.65;;
34673;SDS011;20879;55.668;37.858;2022-07-11T04:48:50;6.72;;;4.90;;
34673;SDS011;20879;55.668;37.858;2022-07-11T04:51:19;5.45;;;4.47;;
34673;SDS011;20879;55.668;37.858;2022-07-11T04:53:50;7.63;;;4.70;;
34673;SDS011;20879;55.668;37.858;2022-07-11T04:56:20;6.90;;;4.68;;
34673;SDS011;20879;55.668;37.858;2022-07-11T04:58:51;7.80;;;4.82;;
34673;SDS011;20879;55.668;37.858;2022-07-11T05:03:50;5.15;;;4.63;;
34673;SDS011;20879;55.668;37.858;2022-07-11T05:06:19;5.55;;;4.85;;
34673;SDS011;20879;55.668;37.858;2022-07-11T05:08:48;5.38;;;4.53;;
34673;SDS011;20879;55.668;37.858;2022-07-11T05:11:17;8.10;;;5.00;;
34673;SDS011;20879;55.668;37.858;2022-07-11T05:13:55;5.70;;;4.32;;
34673;SDS011;20879;55.668;37.858;2022-07-11T05:18:53;6.93;;;4.82;;
34673;SDS011;20879;55.668;37.858;2022-07-11T05:21:22;6.78;;;5.13;;
34673;SDS011;20879;55.668;37.858;2022-07-11T05:23:52;6.63;;;4.90;;
34673;SDS011;20879;55.668;37.858;2022-07-11T05:26:21;7.68;;;5.25;;
34673;SDS011;20879;55.668;37.858;2022-07-11T05:28:50;7.05;;;5.00;;
34673;SDS011;20879;55.668;37.858;2022-07-11T05:31:21;6.63;;;5.28;;
34673;SDS011;20879;55.668;37.858;2022-07-11T05:33:51;8.45;;;5.18;;
34673;SDS011;20879;55.668;37.858;2022-07-11T05:36:20;8.07;;;4.85;;
34673;SDS011;20879;55.668;37.858;2022-07-11T05:38:49;8.90;;;5.85;;
34673;SDS011;20879;55.668;37.858;2022-07-11T05:41:19;5.10;;;4.57;;
34673;SDS011;20879;55.668;37.858;2022-07-11T05:43:49;9.77;;;5.28;;
34673;SDS011;20879;55.668;37.858;2022-07-11T05:46:18;5.97;;;4.60;;
34673;SDS011;20879;55.668;37.858;2022-07-11T05:48:49;10.77;;;5.00;;
34673;SDS011;20879;55.668;37.858;2022-07-11T05:51:22;5.75;;;4.93;;
34673;SDS011;20879;55.668;37.858;2022-07-11T05:53:51;6.32;;;4.70;;
34673;SDS011;20879;55.668;37.858;2022-07-11T05:56:21;9.52;;;4.80;;
34673;SDS011;20879;55.668;37.858;2022-07-11T05:58:51;7.30;;;4.78;;
34673;SDS011;20879;55.668;37.858;2022-07-11T06:01:20;5.80;;;5.00;;
34673;SDS011;20879;55.668;37.858;2022-07-11T06:03:52;7.90;;;4.90;;
34673;SDS011;20879;55.668;37.858;2022-07-11T06:08:52;7.77;;;4.57;;
34673;SDS011;20879;55.668;37.858;2022-07-11T06:11:22;7.82;;;4.63;;
34673;SDS011;20879;55.668;37.858;2022-07-11T06:13:51;8.73;;;4.70;;
34673;SDS011;20879;55.668;37.858;2022-07-11T06:16:26;6.93;;;4.72;;
34673;SDS011;20879;55.668;37.858;2022-07-11T06:18:58;11.05;;;4.95;;
34673;SDS011;20879;55.668;37.858;2022-07-11T06:21:28;6.93;;;5.20;;
34673;SDS011;20879;55.668;37.858;2022-07-11T06:23:57;7.85;;;5.60;;
34673;SDS011;20879;55.668;37.858;2022-07-11T06:26:27;8.77;;;5.43;;
34673;SDS011;20879;55.668;37.858;2022-07-11T06:28:56;8.43;;;5.22;;
34673;SDS011;20879;55.668;37.858;2022-07-11T06:31:25;5.68;;;5.15;;
34673;SDS011;20879;55.668;37.858;2022-07-11T06:33:55;6.78;;;4.72;;
34673;SDS011;20879;55.668;37.858;2022-07-11T06:36:26;6.35;;;5.15;;
34673;SDS011;20879;55.668;37.858;2022-07-11T06:41:24;7.20;;;5.05;;
34673;SDS011;20879;55.668;37.858;2022-07-11T06:43:53;9.57;;;4.93;;
34673;SDS011;20879;55.668;37.858;2022-07-11T06:46:23;5.90;;;4.65;;
34673;SDS011;20879;55.668;37.858;2022-07-11T06:48:53;6.03;;;4.80;;
34673;SDS011;20879;55.668;37.858;2022-07-11T06:51:22;6.47;;;4.68;;
34673;SDS011;20879;55.668;37.858;2022-07-11T06:53:54;6.70;;;4.53;;
34673;SDS011;20879;55.668;37.858;2022-07-11T06:56:23;6.63;;;4.28;;
34673;SDS011;20879;55.668;37.858;2022-07-11T06:58:52;9.23;;;5.00;;
34673;SDS011;20879;55.668;37.858;2022-07-11T07:01:21;8.07;;;5.00;;
34673;SDS011;20879;55.668;37.858;2022-07-11T07:03:51;6.85;;;4.57;;
34673;SDS011;20879;55.668;37.858;2022-07-11T07:06:20;8.75;;;5.45;;
34673;SDS011;20879;55.668;37.858;2022-07-11T07:08:50;7.90;;;4.85;;
34673;SDS011;20879;55.668;37.858;2022-07-11T07:11:21;7.90;;;5.10;;
34673;SDS011;20879;55.668;37.858;2022-07-11T07:13:51;10.65;;;5.40;;
34673;SDS011;20879;55.668;37.858;2022-07-11T07:16:20;8.57;;;4.80;;
34673;SDS011;20879;55.668;37.858;2022-07-11T07:18:51;7.97;;;4.90;;
34673;SDS011;20879;55.668;37.858;2022-07-11T07:21:21;5.53;;;4.97;;
34673;SDS011;20879;55.668;37.858;2022-07-11T07:23:52;6.43;;;4.80;;
34673;SDS011;20879;55.668;37.858;2022-07-11T07:26:24;6.68;;;4.72;;
34673;SDS011;20879;55.668;37.858;2022-07-11T07:28:53;5.25;;;4.72;;
34673;SDS011;20879;55.668;37.858;2022-07-11T07:31:22;6.97;;;4.63;;
34673;SDS011;20879;55.668;37.858;2022-07-11T07:33:51;7.60;;;4.38;;
34673;SDS011;20879;55.668;37.858;2022-07-11T07:36:21;5.05;;;4.10;;
34673;SDS011;20879;55.668;37.858;2022-07-11T07:38:51;6.45;;;4.35;;
34673;SDS011;20879;55.668;37.858;2022-07-11T07:41:25;6.95;;;5.30;;
34673;SDS011;20879;55.668;37.858;2022-07-11T07:43:55;9.50;;;4.97;;
34673;SDS011;20879;55.668;37.858;2022-07-11T07:46:24;5.47;;;4.13;;
34673;SDS011;20879;55.668;37.858;2022-07-11T07:48:54;7.97;;;5.22;;
34673;SDS011;20879;55.668;37.858;2022-07-11T07:51:26;5.05;;;4.60;;
34673;SDS011;20879;55.668;37.858;2022-07-11T07:53:55;5.75;;;4.60;;
34673;SDS011;20879;55.668;37.858;2022-07-11T07:56:26;10.52;;;5.05;;
34673;SDS011;20879;55.668;37.858;2022-07-11T08:01:25;10.20;;;6.82;;
34673;SDS011;20879;55.668;37.858;2022-07-11T08:04:02;5.68;;;4.78;;
34673;SDS011;20879;55.668;37.858;2022-07-11T08:06:32;5.93;;;4.80;;
34673;SDS011;20879;55.668;37.858;2022-07-11T08:09:03;17.73;;;5.75;;
34673;SDS011;20879;55.668;37.858;2022-07-11T08:11:35;6.40;;;4.68;;
34673;SDS011;20879;55.668;37.858;2022-07-11T08:14:05;8.80;;;4.95;;
34673;SDS011;20879;55.668;37.858;2022-07-11T08:16:36;10.88;;;5.20;;
34673;SDS011;20879;55.668;37.858;2022-07-11T08:19:05;7.35;;;4.82;;
34673;SDS011;20879;55.668;37.858;2022-07-11T08:21:35;5.43;;;4.93;;
34673;SDS011;20879;55.668;37.858;2022-07-11T08:24:05;7.60;;;4.90;;
34673;SDS011;20879;55.668;37.858;2022-07-11T08:26:36;6.07;;;5.13;;
34673;SDS011;20879;55.668;37.858;2022-07-11T08:29:07;6.35;;;4.90;;
34673;SDS011;20879;55.668;37.858;2022-07-11T08:31:36;5.57;;;4.97;;
34673;SDS011;20879;55.668;37.858;2022-07-11T08:34:05;7.78;;;4.80;;
34673;SDS011;20879;55.668;37.858;2022-07-11T08:36:42;8.90;;;6.10;;
34673;SDS011;20879;55.668;37.858;2022-07-11T08:39:11;7.25;;;4.93;;
34673;SDS011;20879;55.668;37.858;2022-07-11T08:41:43;6.75;;;4.70;;
34673;SDS011;20879;55.668;37.858;2022-07-11T08:44:13;6.43;;;4.90;;
34673;SDS011;20879;55.668;37.858;2022-07-11T08:46:43;7.72;;;4.90;;
34673;SDS011;20879;55.668;37.858;2022-07-11T08:49:13;6.35;;;4.55;;
34673;SDS011;20879;55.668;37.858;2022-07-11T08:51:43;7.05;;;4.43;;
34673;SDS011;20879;55.668;37.858;2022-07-11T08:54:12;8.20;;;5.25;;
34673;SDS011;20879;55.668;37.858;2022-07-11T08:59:23;8.18;;;4.70;;
34673;SDS011;20879;55.668;37.858;2022-07-11T09:04:24;7.82;;;4.72;;
34673;SDS011;20879;55.668;37.858;2022-07-11T09:06:56;6.22;;;4.55;;
34673;SDS011;20879;55.668;37.858;2022-07-11T09:09:28;8.23;;;4.80;;
34673;SDS011;20879;55.668;37.858;2022-07-11T09:12:00;9.27;;;5.40;;
34673;SDS011;20879;55.668;37.858;2022-07-11T09:14:29;8.85;;;5.70;;
34673;SDS011;20879;55.668;37.858;2022-07-11T09:17:02;6.50;;;4.53;;
34673;SDS011;20879;55.668;37.858;2022-07-11T09:19:33;7.82;;;4.72;;
34673;SDS011;20879;55.668;37.858;2022-07-11T09:22:06;6.45;;;4.72;;
34673;SDS011;20879;55.668;37.858;2022-07-11T09:24:56;5.53;;;4.40;;
34673;SDS011;20879;55.668;37.858;2022-07-11T09:27:42;5.40;;;4.53;;
34673;SDS011;20879;55.668;37.858;2022-07-11T09:30:23;4.50;;;4.10;;
34673;SDS011;20879;55.668;37.858;2022-07-11T09:32:54;6.97;;;4.45;;
34673;SDS011;20879;55.668;37.858;2022-07-11T09:35:25;5.63;;;4.78;;
34673;SDS011;20879;55.668;37.858;2022-07-11T09:37:56;6.40;;;4.82;;
34673;SDS011;20879;55.668;37.858;2022-07-11T09:40:26;4.95;;;4.50;;
34673;SDS011;20879;55.668;37.858;2022-07-11T09:42:58;4.97;;;4.47;;
34673;SDS011;20879;55.668;37.858;2022-07-11T09:45:29;6.07;;;4.57;;
34673;SDS011;20879;55.668;37.858;2022-07-11T09:48:00;5.20;;;4.70;;
34673;SDS011;20879;55.668;37.858;2022-07-11T09:50:35;5.20;;;4.70;;
34673;SDS011;20879;55.668;37.858;2022-07-11T09:53:05;7.18;;;5.00;;
34673;SDS011;20879;55.668;37.858;2022-07-11T09:55:36;4.82;;;4.25;;
34673;SDS011;20879;55.668;37.858;2022-07-11T09:58:28;7.25;;;4.30;;
34673;SDS011;20879;55.668;37.858;2022-07-11T10:00:58;5.10;;;4.45;;
34673;SDS011;20879;55.668;37.858;2022-07-11T10:03:27;7.95;;;4.18;;
34673;SDS011;20879;55.668;37.858;2022-07-11T10:06:17;5.20;;;4.00;;
34673;SDS011;20879;55.668;37.858;2022-07-11T10:08:48;5.88;;;4.30;;
34673;SDS011;20879;55.668;37.858;2022-07-11T10:11:18;8.68;;;4.22;;
34673;SDS011;20879;55.668;37.858;2022-07-11T10:13:50;6.93;;;4.30;;
34673;SDS011;20879;55.668;37.858;2022-07-11T10:16:25;10.75;;;4.55;;
34673;SDS011;20879;55.668;37.858;2022-07-11T10:19:05;8.27;;;4.20;;
34673;SDS011;20879;55.668;37.858;2022-07-11T10:21:47;5.57;;;4.80;;
34673;SDS011;20879;55.668;37.858;2022-07-11T10:24:28;5.05;;;4.55;;
34673;SDS011;20879;55.668;37.858;2022-07-11T10:27:12;6.45;;;4.50;;
34673;SDS011;20879;55.668;37.858;2022-07-11T10:29:58;8.63;;;4.50;;
34673;SDS011;20879;55.668;37.858;2022-07-11T10:32:29;8.95;;;4.50;;
34673;SDS011;20879;55.668;37.858;2022-07-11T10:35:09;8.55;;;4.30;;
34673;SDS011;20879;55.668;37.858;2022-07-11T10:37:47;6.68;;;4.45;;
34673;SDS011;20879;55.668;37.858;2022-07-11T10:43:09;6.80;;;4.80;;
34673;SDS011;20879;55.668;37.858;2022-07-11T10:48:51;8.85;;;4.57;;
34673;SDS011;20879;55.668;37.858;2022-07-11T10:51:25;6.43;;;4.20;;
34673;SDS011;20879;55.668;37.858;2022-07-11T10:54:03;6.95;;;4.00;;
34673;SDS011;20879;55.668;37.858;2022-07-11T10:56:46;10.57;;;4.63;;
34673;SDS011;20879;55.668;37.858;2022-07-11T10:59:25;10.00;;;4.32;;
34673;SDS011;20879;55.668;37.858;2022-07-11T11:02:03;10.27;;;4.90;;
34673;SDS011;20879;55.668;37.858;2022-07-11T11:04:40;7.50;;;4.72;;
34673;SDS011;20879;55.668;37.858;2022-07-11T11:13:13;8.55;;;4.47;;
34673;SDS011;20879;55.668;37.858;2022-07-11T11:15:43;17.90;;;4.53;;
34673;SDS011;20879;55.668;37.858;2022-07-11T11:21:15;5.32;;;4.30;;
34673;SDS011;20879;55.668;37.858;2022-07-11T11:24:03;12.23;;;5.15;;
34673;SDS011;20879;55.668;37.858;2022-07-11T11:26:45;9.00;;;4.55;;
34673;SDS011;20879;55.668;37.858;2022-07-11T11:29:20;8.68;;;4.35;;
34673;SDS011;20879;55.668;37.858;2022-07-11T11:31:53;6.90;;;4.30;;
34673;SDS011;20879;55.668;37.858;2022-07-11T11:34:30;5.45;;;4.03;;
34673;SDS011;20879;55.668;37.858;2022-07-11T11:37:02;9.90;;;4.10;;
34673;SDS011;20879;55.668;37.858;2022-07-11T11:39:32;6.82;;;3.67;;
34673;SDS011;20879;55.668;37.858;2022-07-11T11:42:06;5.65;;;3.78;;
34673;SDS011;20879;55.668;37.858;2022-07-11T11:44:53;8.50;;;3.92;;
34673;SDS011;20879;55.668;37.858;2022-07-11T11:47:29;7.30;;;3.88;;
34673;SDS011;20879;55.668;37.858;2022-07-11T11:50:01;9.93;;;3.80;;
34673;SDS011;20879;55.668;37.858;2022-07-11T11:52:31;7.22;;;3.83;;
34673;SDS011;20879;55.668;37.858;2022-07-11T11:55:02;11.10;;;3.88;;
34673;SDS011;20879;55.668;37.858;2022-07-11T11:57:32;11.95;;;4.25;;
34673;SDS011;20879;55.668;37.858;2022-07-11T12:00:01;7.32;;;3.80;;
34673;SDS011;20879;55.668;37.858;2022-07-11T12:02:31;8.35;;;3.72;;
34673;SDS011;20879;55.668;37.858;2022-07-11T12:05:08;7.28;;;3.90;;
34673;SDS011;20879;55.668;37.858;2022-07-11T12:07:37;7.53;;;3.78;;
34673;SDS011;20879;55.668;37.858;2022-07-11T12:10:07;9.70;;;3.80;;
34673;SDS011;20879;55.668;37.858;2022-07-11T12:12:36;9.15;;;3.85;;
34673;SDS011;20879;55.668;37.858;2022-07-11T12:15:23;8.32;;;3.92;;
34673;SDS011;20879;55.668;37.858;2022-07-11T12:17:58;5.55;;;3.90;;
34673;SDS011;20879;55.668;37.858;2022-07-11T12:20:42;5.47;;;3.83;;
34673;SDS011;20879;55.668;37.858;2022-07-11T12:25:47;9.88;;;3.72;;
34673;SDS011;20879;55.668;37.858;2022-07-11T12:28:18;9.70;;;3.83;;
34673;SDS011;20879;55.668;37.858;2022-07-11T12:30:53;11.55;;;3.70;;
34673;SDS011;20879;55.668;37.858;2022-07-11T12:33:24;6.45;;;3.70;;
34673;SDS011;20879;55.668;37.858;2022-07-11T12:35:56;8.55;;;3.63;;
34673;SDS011;20879;55.668;37.858;2022-07-11T12:41:17;9.18;;;3.90;;
34673;SDS011;20879;55.668;37.858;2022-07-11T12:43:47;5.20;;;3.90;;
34673;SDS011;20879;55.668;37.858;2022-07-11T12:46:31;11.05;;;4.43;;
34673;SDS011;20879;55.668;37.858;2022-07-11T12:49:01;10.05;;;4.20;;
34673;SDS011;20879;55.668;37.858;2022-07-11T13:00:42;11.25;;;3.97;;
34673;SDS011;20879;55.668;37.858;2022-07-11T13:03:27;7.63;;;3.80;;
34673;SDS011;20879;55.668;37.858;2022-07-11T13:05:59;8.25;;;3.80;;
34673;SDS011;20879;55.668;37.858;2022-07-11T13:08:30;8.10;;;4.20;;
34673;SDS011;20879;55.668;37.858;2022-07-11T13:11:14;11.77;;;4.03;;
34673;SDS011;20879;55.668;37.858;2022-07-11T13:13:46;9.57;;;3.90;;
34673;SDS011;20879;55.668;37.858;2022-07-11T13:16:17;5.95;;;4.13;;
34673;SDS011;20879;55.668;37.858;2022-07-11T13:18:47;16.83;;;3.90;;
34673;SDS011;20879;55.668;37.858;2022-07-11T13:21:17;8.45;;;3.90;;
34673;SDS011;20879;55.668;37.858;2022-07-11T13:23:46;11.27;;;4.38;;
34673;SDS011;20879;55.668;37.858;2022-07-11T13:26:16;9.80;;;3.90;;
34673;SDS011;20879;55.668;37.858;2022-07-11T13:28:47;8.00;;;4.20;;
34673;SDS011;20879;55.668;37.858;2022-07-11T13:31:17;8.02;;;4.00;;
34673;SDS011;20879;55.668;37.858;2022-07-11T13:33:47;11.68;;;4.00;;
34673;SDS011;20879;55.668;37.858;2022-07-11T13:36:16;10.30;;;4.47;;
34673;SDS011;20879;55.668;37.858;2022-07-11T13:38:45;8.10;;;4.10;;
34673;SDS011;20879;55.668;37.858;2022-07-11T13:41:15;10.15;;;4.00;;
34673;SDS011;20879;55.668;37.858;2022-07-11T13:43:44;11.13;;;3.80;;
34673;SDS011;20879;55.668;37.858;2022-07-11T13:46:16;10.33;;;4.47;;
34673;SDS011;20879;55.668;37.858;2022-07-11T13:48:52;10.30;;;3.65;;
34673;SDS011;20879;55.668;37.858;2022-07-11T13:51:21;11.25;;;3.70;;
34673;SDS011;20879;55.668;37.858;2022-07-11T13:53:50;8.85;;;4.00;;
34673;SDS011;20879;55.668;37.858;2022-07-11T13:56:20;12.40;;;3.40;;
34673;SDS011;20879;55.668;37.858;2022-07-11T13:58:49;14.77;;;3.70;;
34673;SDS011;20879;55.668;37.858;2022-07-11T14:01:20;7.25;;;3.47;;
34673;SDS011;20879;55.668;37.858;2022-07-11T14:03:50;8.55;;;3.60;;
34673;SDS011;20879;55.668;37.858;2022-07-11T14:06:19;13.15;;;4.13;;
34673;SDS011;20879;55.668;37.858;2022-07-11T14:09:08;8.10;;;3.55;;
34673;SDS011;20879;55.668;37.858;2022-07-11T14:11:38;6.28;;;3.60;;
34673;SDS011;20879;55.668;37.858;2022-07-11T14:14:07;10.73;;;3.67;;
34673;SDS011;20879;55.668;37.858;2022-07-11T14:16:39;9.75;;;3.95;;
34673;SDS011;20879;55.668;37.858;2022-07-11T14:19:08;12.15;;;3.65;;
34673;SDS011;20879;55.668;37.858;2022-07-11T14:21:40;11.20;;;3.72;;
34673;SDS011;20879;55.668;37.858;2022-07-11T14:24:17;14.13;;;3.97;;
34673;SDS011;20879;55.668;37.858;2022-07-11T14:26:46;11.82;;;4.22;;
34673;SDS011;20879;55.668;37.858;2022-07-11T14:29:15;9.30;;;4.07;;
34673;SDS011;20879;55.668;37.858;2022-07-11T14:31:47;9.55;;;4.18;;
34673;SDS011;20879;55.668;37.858;2022-07-11T14:34:16;6.57;;;4.32;;
34673;SDS011;20879;55.668;37.858;2022-07-11T14:36:46;14.90;;;4.40;;
34673;SDS011;20879;55.668;37.858;2022-07-11T14:39:15;9.50;;;3.80;;
34673;SDS011;20879;55.668;37.858;2022-07-11T14:41:45;12.77;;;4.43;;
34673;SDS011;20879;55.668;37.858;2022-07-11T14:44:14;8.20;;;4.13;;
34673;SDS011;20879;55.668;37.858;2022-07-11T14:46:43;11.45;;;3.88;;
34673;SDS011;20879;55.668;37.858;2022-07-11T14:49:16;8.15;;;4.38;;
34673;SDS011;20879;55.668;37.858;2022-07-11T14:51:45;10.65;;;3.90;;
34673;SDS011;20879;55.668;37.858;2022-07-11T14:54:23;9.48;;;3.65;;
34673;SDS011;20879;55.668;37.858;2022-07-11T14:56:53;8.32;;;4.00;;
34673;SDS011;20879;55.668;37.858;2022-07-11T14:59:22;7.43;;;3.90;;
34673;SDS011;20879;55.668;37.858;2022-07-11T15:01:51;9.07;;;4.10;;
34673;SDS011;20879;55.668;37.858;2022-07-11T15:04:23;10.40;;;3.72;;
34673;SDS011;20879;55.668;37.858;2022-07-11T15:06:53;14.07;;;4.22;;
34673;SDS011;20879;55.668;37.858;2022-07-11T15:09:35;10.23;;;3.88;;
34673;SDS011;20879;55.668;37.858;2022-07-11T15:12:18;7.20;;;3.88;;
34673;SDS011;20879;55.668;37.858;2022-07-11T15:14:50;11.18;;;4.00;;
34673;SDS011;20879;55.668;37.858;2022-07-11T15:17:20;9.25;;;4.10;;
34673;SDS011;20879;55.668;37.858;2022-07-11T15:19:52;11.77;;;4.32;;
34673;SDS011;20879;55.668;37.858;2022-07-11T15:22:21;10.70;;;4.15;;
34673;SDS011;20879;55.668;37.858;2022-07-11T15:24:50;9.10;;;4.30;;
34673;SDS011;20879;55.668;37.858;2022-07-11T15:27:19;12.50;;;4.63;;
34673;SDS011;20879;55.668;37.858;2022-07-11T15:29:49;13.60;;;5.43;;
34673;SDS011;20879;55.668;37.858;2022-07-11T15:32:18;6.50;;;4.63;;
34673;SDS011;20879;55.668;37.858;2022-07-11T15:34:47;12.40;;;4.32;;
34673;SDS011;20879;55.668;37.858;2022-07-11T15:37:19;8.80;;;4.50;;
34673;SDS011;20879;55.668;37.858;2022-07-11T15:39:48;10.18;;;4.60;;
34673;SDS011;20879;55.668;37.858;2022-07-11T15:42:17;10.40;;;4.78;;
34673;SDS011;20879;55.668;37.858;2022-07-11T15:44:47;14.75;;;5.28;;
34673;SDS011;20879;55.668;37.858;2022-07-11T15:47:16;8.45;;;5.32;;